Time;durP1;ratioP1;P1;durP2;ratioP2;P2;SDS_P1;SDS_P2;PMS_P1;PMS_P2;Temp;Humidity;BMP_temperature;BMP_pressure;BME280_temperature;BME280_humidity;BME280_pressure;Samples;Min_cycle;Max_cycle;Signal;HPM_P1;HPM_P2
2023/12/20 00:02:06;;;;;;;5.67;3.37;;;7.70;99.90;;;;;;5097348;28;20522;-62
2023/12/20 00:04:33;;;;;;;5.10;4.10;;;7.60;99.90;;;;;;5097361;28;20481;-61
2023/12/20 00:07:01;;;;;;;5.90;4.10;;;7.60;99.90;;;;;;5096479;28;20539;-61
2023/12/20 00:09:28;;;;;;;5.10;4.17;;;7.60;99.90;;;;;;5100557;28;20490;-60
2023/12/20 00:11:55;;;;;;;4.83;3.30;;;7.60;99.90;;;;;;5111928;28;20468;-60
2023/12/20 00:14:21;;;;;;;6.67;3.77;;;7.50;99.90;;;;;;5099455;28;20857;-60
2023/12/20 00:16:50;;;;;;;5.60;3.80;;;7.50;99.90;;;;;;5099550;28;20980;-60
2023/12/20 00:19:16;;;;;;;5.20;3.80;;;7.50;99.90;;;;;;5098823;28;20462;-61
2023/12/20 00:21:43;;;;;;;4.20;3.80;;;7.50;99.90;;;;;;5098206;28;20485;-60
2023/12/20 00:24:10;;;;;;;6.50;4.40;;;7.60;99.90;;;;;;5098418;28;20440;-60
2023/12/20 00:26:37;;;;;;;3.70;3.30;;;7.60;99.90;;;;;;5103099;28;20482;-60
2023/12/20 00:29:04;;;;;;;6.10;5.07;;;7.60;99.90;;;;;;5098441;28;20465;-60
2023/12/20 00:31:31;;;;;;;5.30;3.50;;;7.50;99.90;;;;;;5098430;28;21104;-60
2023/12/20 00:33:59;;;;;;;4.33;3.90;;;7.60;99.90;;;;;;5097954;28;20551;-60
2023/12/20 00:36:26;;;;;;;10.23;5.10;;;7.50;99.90;;;;;;5098018;28;21031;-61
2023/12/20 00:38:53;;;;;;;8.13;4.23;;;7.60;99.90;;;;;;5098150;28;20445;-61
2023/12/20 00:41:20;;;;;;;3.30;2.30;;;7.60;99.90;;;;;;5097968;28;20529;-60
2023/12/20 00:43:46;;;;;;;3.90;3.50;;;7.60;99.90;;;;;;5109679;28;21007;-61
2023/12/20 00:46:13;;;;;;;4.30;3.80;;;7.60;99.90;;;;;;5118773;28;20979;-61
2023/12/20 00:48:41;;;;;;;4.90;4.03;;;7.50;99.90;;;;;;5119057;28;20450;-60
2023/12/20 00:51:10;;;;;;;5.93;4.10;;;7.60;99.90;;;;;;5120722;28;20558;-59
2023/12/20 00:53:37;;;;;;;4.43;4.03;;;7.60;99.90;;;;;;5122968;28;20498;-58
2023/12/20 00:56:04;;;;;;;3.90;3.47;;;7.60;99.90;;;;;;5122722;28;20846;-60
2023/12/20 00:58:31;;;;;;;4.60;3.10;;;7.50;99.90;;;;;;5119511;28;20522;-61
2023/12/20 01:00:58;;;;;;;4.27;3.37;;;7.60;99.90;;;;;;5106726;28;21022;-60
2023/12/20 01:03:25;;;;;;;4.87;2.70;;;7.60;99.90;;;;;;5100362;28;20442;-60
2023/12/20 01:05:51;;;;;;;4.97;3.80;;;7.60;99.90;;;;;;5100340;28;20570;-60
2023/12/20 01:08:20;;;;;;;3.93;2.87;;;7.60;99.90;;;;;;5100313;28;20532;-60
2023/12/20 01:10:47;;;;;;;3.70;2.67;;;7.60;99.90;;;;;;5100708;28;20449;-59
2023/12/20 01:13:14;;;;;;;4.23;3.00;;;7.60;99.90;;;;;;5100290;28;20455;-59
2023/12/20 01:15:41;;;;;;;4.50;3.63;;;7.50;99.90;;;;;;5100227;28;20466;-59
2023/12/20 01:18:08;;;;;;;4.70;3.70;;;7.50;99.90;;;;;;5099830;28;20450;-59
2023/12/20 01:20:36;;;;;;;4.37;3.97;;;7.50;99.90;;;;;;5100785;28;20528;-59
2023/12/20 01:23:02;;;;;;;5.60;4.10;;;7.50;99.90;;;;;;5099675;28;20534;-60
2023/12/20 01:25:31;;;;;;;4.10;3.13;;;7.60;99.90;;;;;;5100071;28;20827;-60
2023/12/20 01:27:58;;;;;;;3.87;2.90;;;7.50;99.90;;;;;;5100118;28;20492;-60
2023/12/20 01:30:25;;;;;;;6.40;4.10;;;7.50;99.90;;;;;;5100023;28;20533;-61
2023/12/20 01:32:52;;;;;;;4.87;2.93;;;7.50;99.90;;;;;;5100374;28;20449;-60
2023/12/20 01:35:18;;;;;;;3.70;2.90;;;7.50;99.90;;;;;;5099541;28;20446;-60
2023/12/20 01:37:45;;;;;;;4.10;3.40;;;7.50;99.90;;;;;;5100150;28;20542;-60
2023/12/20 01:40:12;;;;;;;5.93;3.03;;;7.50;99.90;;;;;;5099762;28;20980;-60
2023/12/20 01:42:42;;;;;;;3.30;3.00;;;7.50;99.90;;;;;;5100451;28;20935;-61
2023/12/20 01:45:10;;;;;;;4.10;3.23;;;7.50;99.90;;;;;;5100164;28;20458;-60
2023/12/20 01:47:37;;;;;;;3.77;2.77;;;7.50;99.90;;;;;;5100463;28;20466;-61
2023/12/20 01:50:07;;;;;;;3.43;3.10;;;7.60;99.90;;;;;;5099937;28;20452;-60
2023/12/20 01:52:36;;;;;;;3.13;2.50;;;7.60;99.90;;;;;;5100013;28;20423;-60
2023/12/20 01:55:06;;;;;;;3.67;2.83;;;7.50;99.90;;;;;;5099602;28;20485;-61
2023/12/20 01:57:33;;;;;;;3.73;2.67;;;7.50;99.90;;;;;;5100139;28;20527;-60
2023/12/20 02:00:03;;;;;;;2.70;1.93;;;7.50;99.90;;;;;;5099943;28;20483;-60
2023/12/20 02:02:31;;;;;;;3.20;2.27;;;7.60;99.90;;;;;;5098917;28;20459;-60
2023/12/20 02:04:58;;;;;;;5.07;3.83;;;7.50;99.90;;;;;;5099357;28;20501;-60
2023/12/20 02:07:25;;;;;;;2.87;2.57;;;7.40;99.90;;;;;;5099446;28;20534;-59
2023/12/20 02:09:53;;;;;;;3.80;2.80;;;7.40;99.90;;;;;;5100103;28;20480;-60
2023/12/20 02:12:20;;;;;;;2.87;2.40;;;7.30;99.90;;;;;;5113414;28;20476;-60
2023/12/20 02:14:47;;;;;;;3.80;3.00;;;7.40;99.90;;;;;;5119858;28;21108;-60
2023/12/20 02:17:16;;;;;;;3.83;3.23;;;7.40;99.90;;;;;;5118791;28;20447;-58
2023/12/20 02:19:43;;;;;;;4.47;2.90;;;7.40;99.90;;;;;;5119028;28;20527;-61
2023/12/20 02:22:11;;;;;;;3.07;2.77;;;7.50;99.90;;;;;;5119589;28;20524;-59
2023/12/20 02:24:39;;;;;;;3.40;3.10;;;7.50;99.90;;;;;;5118786;28;20985;-59
2023/12/20 02:27:07;;;;;;;3.27;2.57;;;7.50;99.90;;;;;;5116281;28;20583;-60
2023/12/20 02:29:34;;;;;;;5.70;4.17;;;7.50;99.90;;;;;;5098862;28;20461;-60
2023/12/20 02:32:02;;;;;;;3.63;2.83;;;7.60;99.90;;;;;;5098507;28;20984;-61
2023/12/20 02:34:28;;;;;;;4.00;3.10;;;7.60;99.90;;;;;;5098205;28;21272;-60
2023/12/20 02:36:55;;;;;;;4.13;3.20;;;7.50;99.90;;;;;;5106851;28;20428;-59
2023/12/20 02:39:23;;;;;;;4.63;2.83;;;7.50;99.90;;;;;;5117821;28;20848;-59
2023/12/20 02:41:50;;;;;;;3.40;2.93;;;7.50;99.90;;;;;;5116229;28;20525;-60
2023/12/20 02:44:17;;;;;;;4.37;2.90;;;7.50;99.90;;;;;;5115666;28;20481;-60
2023/12/20 02:46:44;;;;;;;4.23;3.00;;;7.50;99.90;;;;;;5098555;28;20475;-58
2023/12/20 02:49:11;;;;;;;6.90;4.30;;;7.60;99.90;;;;;;5115056;28;21055;-60
2023/12/20 02:51:39;;;;;;;5.33;4.33;;;7.50;99.90;;;;;;5115299;28;20467;-59
2023/12/20 02:54:05;;;;;;;4.40;3.30;;;7.50;99.90;;;;;;5115256;28;20459;-61
2023/12/20 02:56:34;;;;;;;7.77;3.80;;;7.50;99.90;;;;;;5115312;28;20774;-60
2023/12/20 02:59:01;;;;;;;5.33;3.83;;;7.50;99.90;;;;;;5115536;28;20470;-60
2023/12/20 03:01:29;;;;;;;9.90;4.83;;;7.50;99.90;;;;;;5115344;28;20484;-60
2023/12/20 03:03:55;;;;;;;5.60;4.43;;;7.50;99.90;;;;;;5115350;28;20515;-60
2023/12/20 03:06:22;;;;;;;6.43;3.93;;;7.50;99.90;;;;;;5114905;28;20476;-60
2023/12/20 03:08:49;;;;;;;5.40;3.40;;;7.50;99.90;;;;;;5115313;28;20444;-60
2023/12/20 03:11:16;;;;;;;7.10;5.13;;;7.50;99.90;;;;;;5117841;28;20531;-60
2023/12/20 03:13:44;;;;;;;5.57;4.00;;;7.50;99.90;;;;;;5119734;28;20469;-59
2023/12/20 03:16:11;;;;;;;7.30;4.13;;;7.50;99.90;;;;;;5118283;28;20530;-59
2023/12/20 03:18:38;;;;;;;7.07;3.60;;;7.40;99.90;;;;;;5119570;28;20537;-60
2023/12/20 03:21:06;;;;;;;6.60;3.87;;;7.40;99.90;;;;;;5124474;28;20507;-59
2023/12/20 03:23:33;;;;;;;3.33;2.77;;;7.40;99.90;;;;;;5123721;28;20469;-59
2023/12/20 03:26:00;;;;;;;4.03;2.63;;;7.40;99.90;;;;;;5123888;28;20518;-59
2023/12/20 03:28:27;;;;;;;3.97;2.67;;;7.40;99.90;;;;;;5121612;28;20579;-60
2023/12/20 03:30:55;;;;;;;5.40;3.23;;;7.40;99.90;;;;;;5121774;28;20456;-59
2023/12/20 03:33:22;;;;;;;6.00;2.97;;;7.40;99.90;;;;;;5121223;28;20523;-59
2023/12/20 03:35:49;;;;;;;6.07;2.83;;;7.40;99.90;;;;;;5116917;28;20566;-57
2023/12/20 03:38:16;;;;;;;3.07;2.60;;;7.50;99.90;;;;;;5121059;28;20537;-60
2023/12/20 03:40:43;;;;;;;5.73;3.33;;;7.50;99.90;;;;;;5119869;28;20450;-60
2023/12/20 03:43:10;;;;;;;11.10;2.93;;;7.50;99.90;;;;;;5118809;28;20868;-60
2023/12/20 03:45:37;;;;;;;7.83;2.83;;;7.50;99.90;;;;;;5117406;28;20548;-60
2023/12/20 03:48:06;;;;;;;3.40;2.70;;;7.50;99.90;;;;;;5115121;28;20526;-59
2023/12/20 03:50:33;;;;;;;3.43;2.40;;;7.50;99.90;;;;;;5114774;28;20448;-60
2023/12/20 03:53:00;;;;;;;5.20;2.30;;;7.50;99.90;;;;;;5114628;28;20500;-60
2023/12/20 03:55:26;;;;;;;5.20;2.43;;;7.50;99.90;;;;;;5114426;28;20471;-60
2023/12/20 03:57:53;;;;;;;5.10;2.03;;;7.50;99.90;;;;;;5114608;28;20484;-60
2023/12/20 04:00:20;;;;;;;3.37;2.30;;;7.50;99.90;;;;;;5114653;28;20534;-59
2023/12/20 04:02:47;;;;;;;4.70;2.13;;;7.50;99.90;;;;;;5114518;28;20502;-60
2023/12/20 04:05:15;;;;;;;3.00;2.10;;;7.50;99.90;;;;;;5114726;28;20452;-60
2023/12/20 04:07:42;;;;;;;5.40;1.87;;;7.40;99.90;;;;;;5117006;28;20497;-59
2023/12/20 04:10:10;;;;;;;2.43;1.60;;;7.40;99.90;;;;;;5118443;28;20725;-59
2023/12/20 04:12:37;;;;;;;3.60;2.00;;;7.40;99.90;;;;;;5118758;28;20491;-59
2023/12/20 04:15:08;;;;;;;11.40;3.13;;;7.40;99.90;;;;;;5118728;28;20473;-60
2023/12/20 04:17:35;;;;;;;2.77;2.27;;;7.40;99.90;;;;;;5118187;28;20465;-59
2023/12/20 04:20:02;;;;;;;4.40;1.87;;;7.40;99.90;;;;;;5118174;28;20462;-59
2023/12/20 04:22:30;;;;;;;5.60;1.90;;;7.40;99.90;;;;;;5119733;28;20447;-60
2023/12/20 04:24:57;;;;;;;2.87;1.70;;;7.40;99.90;;;;;;5118793;28;20534;-60
2023/12/20 04:27:24;;;;;;;4.00;2.30;;;7.40;99.90;;;;;;5118310;28;20563;-58
2023/12/20 04:29:51;;;;;;;9.73;1.87;;;7.30;99.90;;;;;;5119028;28;20513;-60
2023/12/20 04:32:18;;;;;;;1.90;1.70;;;7.40;99.90;;;;;;5119874;28;20868;-60
2023/12/20 04:34:43;;;;;;;4.80;1.80;;;7.40;99.90;;;;;;5119679;28;20531;-60
2023/12/20 04:37:10;;;;;;;4.33;2.33;;;7.30;99.90;;;;;;5118371;28;20624;-60
2023/12/20 04:39:38;;;;;;;3.07;1.43;;;7.20;99.90;;;;;;5119265;28;20220;-59
2023/12/20 04:42:06;;;;;;;4.97;2.40;;;7.30;99.90;;;;;;5119099;28;20508;-57
2023/12/20 04:44:33;;;;;;;3.40;1.80;;;7.20;99.90;;;;;;5119390;28;20546;-60
2023/12/20 04:46:59;;;;;;;4.30;1.27;;;7.20;99.90;;;;;;5112965;28;20932;-60
2023/12/20 04:49:26;;;;;;;5.10;1.83;;;7.20;99.90;;;;;;5118273;28;20475;-63
2023/12/20 04:51:54;;;;;;;9.70;2.20;;;7.20;99.90;;;;;;5117666;28;20958;-59
2023/12/20 04:54:20;;;;;;;4.43;1.77;;;7.10;99.90;;;;;;5114281;28;20536;-59
2023/12/20 04:56:49;;;;;;;4.93;1.63;;;7.10;99.90;;;;;;5113432;28;20459;-59
2023/12/20 04:59:18;;;;;;;7.50;1.90;;;7.10;99.90;;;;;;5115602;28;20441;-60
2023/12/20 05:01:45;;;;;;;3.13;1.67;;;7.00;99.90;;;;;;5119866;28;20482;-60
2023/12/20 05:04:11;;;;;;;6.13;2.30;;;7.00;99.90;;;;;;5120780;28;20486;-58
2023/12/20 05:06:38;;;;;;;3.67;1.60;;;7.00;99.90;;;;;;5122126;28;20540;-57
2023/12/20 05:09:05;;;;;;;9.70;1.43;;;6.90;99.90;;;;;;5121926;28;20512;-61
2023/12/20 05:11:32;;;;;;;2.63;1.97;;;6.90;99.90;;;;;;5123356;28;20490;-59
2023/12/20 05:14:00;;;;;;;2.57;1.97;;;6.90;99.90;;;;;;5121541;28;20930;-60
2023/12/20 05:16:27;;;;;;;7.10;2.70;;;6.80;99.90;;;;;;5117962;28;20531;-59
2023/12/20 05:18:58;;;;;;;4.03;1.90;;;6.80;99.90;;;;;;5117283;28;20499;-59
2023/12/20 05:21:25;;;;;;;3.67;1.47;;;6.80;99.90;;;;;;5117908;28;20916;-60
2023/12/20 05:23:52;;;;;;;4.07;1.60;;;6.70;99.90;;;;;;5117742;28;20467;-59
2023/12/20 05:26:19;;;;;;;3.17;1.80;;;6.70;99.90;;;;;;5118413;28;21003;-60
2023/12/20 05:28:48;;;;;;;9.30;1.73;;;6.70;99.90;;;;;;5117644;28;20483;-60
2023/12/20 05:31:16;;;;;;;5.87;2.20;;;6.70;99.90;;;;;;5117359;28;20487;-60
2023/12/20 05:33:43;;;;;;;7.77;2.00;;;6.70;99.90;;;;;;5117386;28;20467;-59
2023/12/20 05:36:13;;;;;;;7.40;2.07;;;6.60;99.90;;;;;;5117036;28;20453;-60
2023/12/20 05:38:40;;;;;;;11.53;1.67;;;6.60;99.90;;;;;;5117607;28;20487;-59
2023/12/20 05:41:07;;;;;;;6.50;2.40;;;6.50;99.90;;;;;;5117491;28;20518;-61
2023/12/20 05:43:34;;;;;;;3.57;1.63;;;6.40;99.90;;;;;;5116467;28;20555;-58
2023/12/20 05:46:00;;;;;;;2.70;1.67;;;6.40;99.90;;;;;;5111035;28;21024;-58
2023/12/20 05:48:29;;;;;;;8.53;2.07;;;6.30;99.90;;;;;;5120204;28;20499;-59
2023/12/20 05:50:58;;;;;;;3.70;1.73;;;6.30;99.90;;;;;;5120723;28;20535;-60
2023/12/20 05:53:28;;;;;;;3.20;1.73;;;6.20;99.90;;;;;;5117763;28;20553;-59
2023/12/20 05:55:55;;;;;;;4.10;1.97;;;6.20;99.90;;;;;;5118787;28;20643;-59
2023/12/20 05:58:22;;;;;;;1.63;1.10;;;6.10;99.90;;;;;;5117175;28;20988;-59
2023/12/20 06:00:49;;;;;;;4.93;1.97;;;6.10;99.90;;;;;;5116857;28;20456;-58
2023/12/20 06:03:16;;;;;;;1.50;1.20;;;6.10;99.90;;;;;;5116789;28;20542;-60
2023/12/20 06:05:44;;;;;;;5.70;2.13;;;6.10;99.90;;;;;;5116963;28;20499;-60
2023/12/20 06:08:11;;;;;;;3.77;2.10;;;6.10;99.90;;;;;;5116871;28;20471;-61
2023/12/20 06:10:38;;;;;;;3.40;1.53;;;6.10;99.90;;;;;;5116316;28;20570;-60
2023/12/20 06:13:06;;;;;;;4.63;1.30;;;6.10;99.90;;;;;;5115768;28;20472;-59
2023/12/20 06:15:33;;;;;;;11.03;2.50;;;6.10;99.90;;;;;;5116471;28;20977;-61
2023/12/20 06:18:00;;;;;;;2.60;1.30;;;6.10;99.90;;;;;;5116827;28;20546;-59
2023/12/20 06:20:27;;;;;;;3.10;1.70;;;6.10;99.90;;;;;;5119502;28;20537;-60
2023/12/20 06:22:55;;;;;;;9.43;2.10;;;6.10;99.90;;;;;;5120468;28;20530;-59
2023/12/20 06:25:22;;;;;;;2.10;1.30;;;6.10;99.90;;;;;;5120531;28;20441;-59
2023/12/20 06:27:49;;;;;;;5.10;1.60;;;6.10;99.90;;;;;;5137579;28;20477;-60
2023/12/20 06:30:17;;;;;;;4.90;1.90;;;6.10;99.90;;;;;;5133003;27;20479;-60
2023/12/20 06:32:44;;;;;;;6.53;2.30;;;6.10;99.90;;;;;;5121494;28;20539;-59
2023/12/20 06:35:10;;;;;;;2.60;1.80;;;6.10;99.90;;;;;;5121415;28;20495;-60
2023/12/20 06:37:37;;;;;;;2.80;2.03;;;6.20;99.90;;;;;;5119200;28;20473;-60
2023/12/20 06:40:07;;;;;;;3.57;1.40;;;6.10;99.90;;;;;;5118314;28;20472;-60
2023/12/20 06:42:34;;;;;;;4.73;2.00;;;6.10;99.90;;;;;;5116008;28;20862;-60
2023/12/20 06:45:01;;;;;;;9.10;2.20;;;6.10;99.90;;;;;;5114846;28;21116;-59
2023/12/20 06:47:28;;;;;;;3.30;1.63;;;6.00;99.90;;;;;;5115684;28;20490;-59
2023/12/20 06:49:55;;;;;;;4.37;1.93;;;6.10;99.90;;;;;;5116153;28;20534;-60
2023/12/20 06:52:22;;;;;;;3.03;1.73;;;6.10;99.90;;;;;;5115547;28;20474;-59
2023/12/20 06:54:49;;;;;;;2.87;2.10;;;6.70;99.90;;;;;;5115188;28;20946;-60
2023/12/20 06:57:17;;;;;;;3.90;1.97;;;6.60;99.90;;;;;;5115977;28;20467;-58
2023/12/20 06:59:44;;;;;;;2.97;2.00;;;6.50;99.90;;;;;;5115755;28;20938;-59
2023/12/20 07:02:11;;;;;;;4.53;1.40;;;6.50;99.90;;;;;;5115593;28;20471;-59
2023/12/20 07:04:40;;;;;;;7.43;2.33;;;6.40;99.90;;;;;;5115679;28;20493;-60
2023/12/20 07:07:07;;;;;;;2.43;1.90;;;6.40;99.90;;;;;;5114929;27;20492;-55
2023/12/20 07:09:34;;;;;;;8.57;2.00;;;6.90;99.90;;;;;;5114699;28;20556;-56
2023/12/20 07:12:02;;;;;;;6.50;1.77;;;6.80;99.90;;;;;;5114839;28;20530;-58
2023/12/20 07:14:30;;;;;;;7.63;1.70;;;6.70;99.90;;;;;;5114615;28;20492;-57
2023/12/20 07:16:57;;;;;;;12.87;1.60;;;6.60;99.90;;;;;;5113251;28;20541;-57
2023/12/20 07:19:24;;;;;;;3.63;1.63;;;6.50;99.90;;;;;;5114628;28;20527;-56
2023/12/20 07:21:50;;;;;;;5.13;1.70;;;6.50;99.90;;;;;;5114936;28;20432;-57
2023/12/20 07:24:17;;;;;;;9.93;2.47;;;6.50;99.90;;;;;;5115481;28;20816;-48
2023/12/20 07:26:44;;;;;;;7.60;2.13;;;6.60;99.90;;;;;;5114667;28;20978;-47
2023/12/20 07:29:11;;;;;;;3.77;1.83;;;6.50;99.90;;;;;;5115111;28;20474;-45
2023/12/20 07:31:39;;;;;;;6.30;1.93;;;6.50;99.90;;;;;;5125571;28;20484;-46
2023/12/20 07:34:06;;;;;;;9.93;2.60;;;6.70;99.90;;;;;;5135008;28;20473;-46
2023/12/20 07:36:33;;;;;;;6.73;2.67;;;7.00;99.90;;;;;;5134735;28;20503;-43
2023/12/20 07:39:00;;;;;;;5.63;2.37;;;7.40;99.90;;;;;;5134346;28;20499;-58
2023/12/20 07:41:26;;;;;;;5.57;1.90;;;7.40;99.90;;;;;;5134103;28;20921;-59
2023/12/20 07:43:54;;;;;;;4.87;2.67;;;7.10;99.90;;;;;;5135220;28;20455;-58
2023/12/20 07:46:23;;;;;;;3.47;2.00;;;7.00;99.90;;;;;;5130766;28;20640;-60
2023/12/20 07:48:52;;;;;;;8.13;3.13;;;6.80;99.90;;;;;;5134786;28;20471;-58
2023/12/20 07:51:18;;;;;;;12.43;1.90;;;6.70;99.90;;;;;;5130328;28;20633;-57
2023/12/20 07:53:45;;;;;;;4.50;1.90;;;6.70;99.90;;;;;;5123570;28;20447;-58
2023/12/20 07:56:16;;;;;;;4.87;1.33;;;6.60;99.90;;;;;;5122238;28;20962;-59
2023/12/20 07:58:43;;;;;;;8.23;2.10;;;6.50;99.90;;;;;;5117839;28;20499;-55
2023/12/20 08:01:10;;;;;;;3.70;1.57;;;6.40;99.90;;;;;;5116020;28;20450;-57
2023/12/20 08:03:37;;;;;;;7.67;1.97;;;6.40;99.90;;;;;;5116300;28;20458;-57
2023/12/20 08:06:06;;;;;;;5.17;1.77;;;6.40;99.90;;;;;;5118152;28;20517;-59
2023/12/20 08:08:32;;;;;;;12.20;2.40;;;6.40;99.90;;;;;;5118544;28;20488;-59
2023/12/20 08:11:00;;;;;;;6.90;1.40;;;6.40;99.90;;;;;;5118516;28;20499;-58
2023/12/20 08:13:27;;;;;;;4.60;1.40;;;6.40;99.90;;;;;;5115283;28;20918;-58
2023/12/20 08:15:55;;;;;;;3.13;1.03;;;6.40;99.90;;;;;;5116924;28;20988;-56
2023/12/20 08:18:23;;;;;;;11.63;2.67;;;6.40;99.90;;;;;;5118994;28;20471;-58
2023/12/20 08:20:50;;;;;;;3.13;1.43;;;6.30;99.90;;;;;;5121380;28;20446;-58
2023/12/20 08:23:18;;;;;;;6.30;1.90;;;6.40;99.90;;;;;;5117794;28;20537;-58
2023/12/20 08:25:46;;;;;;;5.80;2.20;;;6.30;99.90;;;;;;5115283;28;20558;-53
2023/12/20 08:28:12;;;;;;;8.13;2.47;;;6.40;99.90;;;;;;5114079;28;20800;-54
2023/12/20 08:30:39;;;;;;;4.10;2.27;;;6.40;99.90;;;;;;5113726;28;21064;-54
2023/12/20 08:33:11;;;;;;;7.27;2.13;;;6.40;99.90;;;;;;5113721;28;20472;-56
2023/12/20 08:35:38;;;;;;;2.20;1.27;;;6.40;99.90;;;;;;5113840;28;20529;-57
2023/12/20 08:38:05;;;;;;;3.40;1.90;;;6.40;99.90;;;;;;5114148;28;20516;-55
2023/12/20 08:40:33;;;;;;;5.67;1.37;;;6.40;99.90;;;;;;5113903;28;20530;-57
2023/12/20 08:43:00;;;;;;;5.80;1.33;;;6.40;99.90;;;;;;5110306;28;20519;-55
2023/12/20 08:45:27;;;;;;;4.97;2.23;;;6.40;99.90;;;;;;5094690;28;20439;-55
2023/12/20 08:47:53;;;;;;;2.10;1.10;;;6.50;99.90;;;;;;5097495;28;20476;-58
2023/12/20 08:50:20;;;;;;;3.00;1.20;;;6.50;99.90;;;;;;5097233;28;20567;-58
2023/12/20 08:52:47;;;;;;;3.00;1.27;;;6.50;99.90;;;;;;5097399;28;20530;-58
2023/12/20 08:55:16;;;;;;;3.50;1.50;;;6.60;99.90;;;;;;5097242;28;20449;-57
2023/12/20 08:57:44;;;;;;;1.90;1.40;;;6.70;99.90;;;;;;5097368;28;20900;-55
2023/12/20 09:00:12;;;;;;;3.30;1.90;;;6.70;99.90;;;;;;5112851;28;20539;-53
2023/12/20 09:02:39;;;;;;;3.93;1.57;;;6.80;99.90;;;;;;5113776;28;20557;-60
2023/12/20 09:05:06;;;;;;;5.20;1.33;;;6.80;99.90;;;;;;5116809;28;20447;-58
2023/12/20 09:07:33;;;;;;;4.50;1.37;;;6.70;99.90;;;;;;5116664;28;20568;-54
2023/12/20 09:10:00;;;;;;;4.30;1.67;;;6.70;99.90;;;;;;5117271;28;20508;-58
2023/12/20 09:12:27;;;;;;;3.37;1.57;;;6.70;99.90;;;;;;5116418;28;20523;-60
2023/12/20 09:14:55;;;;;;;3.80;1.40;;;6.70;99.90;;;;;;5115418;28;20547;-56
2023/12/20 09:17:22;;;;;;;5.87;1.73;;;6.80;99.90;;;;;;5116127;28;20522;-56
2023/12/20 09:19:52;;;;;;;4.80;2.07;;;6.90;99.90;;;;;;5116372;28;20441;-54
2023/12/20 09:22:19;;;;;;;5.07;2.60;;;7.00;99.90;;;;;;5095345;28;20460;-55
2023/12/20 09:24:46;;;;;;;5.50;2.00;;;7.10;99.90;;;;;;5096646;28;20467;-57
2023/12/20 09:27:12;;;;;;;8.30;1.50;;;7.10;99.90;;;;;;5096647;28;20546;-58
2023/12/20 09:29:39;;;;;;;4.13;1.23;;;7.00;99.90;;;;;;5096777;28;20922;-54
2023/12/20 09:32:08;;;;;;;4.90;1.70;;;7.00;99.90;;;;;;5096957;28;20446;-55
2023/12/20 09:34:35;;;;;;;8.23;2.00;;;7.00;99.90;;;;;;5097089;28;20557;-57
2023/12/20 09:37:02;;;;;;;2.30;1.30;;;7.00;99.90;;;;;;5097240;28;20544;-58
2023/12/20 09:39:28;;;;;;;5.83;1.33;;;7.00;99.90;;;;;;5096740;28;20439;-56
2023/12/20 09:42:01;;;;;;;2.73;1.17;;;6.90;99.90;;;;;;5096608;28;20973;-57
2023/12/20 09:44:28;;;;;;;4.73;2.40;;;7.00;99.90;;;;;;5096954;28;20861;-57
2023/12/20 09:46:56;;;;;;;2.07;1.60;;;7.00;99.90;;;;;;5096593;28;20485;-56
2023/12/20 09:49:26;;;;;;;10.17;3.83;;;7.00;99.90;;;;;;5096601;28;20545;-60
2023/12/20 09:51:54;;;;;;;16.97;5.60;;;6.90;99.90;;;;;;5096566;28;20937;-59
2023/12/20 09:54:23;;;;;;;5.40;2.90;;;7.00;99.90;;;;;;5096162;28;20872;-59
2023/12/20 09:56:50;;;;;;;7.03;2.00;;;7.00;99.90;;;;;;5096281;28;20481;-53
2023/12/20 09:59:17;;;;;;;7.20;1.97;;;6.90;99.90;;;;;;5096666;28;20435;-55
2023/12/20 10:01:44;;;;;;;4.33;2.10;;;7.00;99.90;;;;;;5096370;28;20537;-55
2023/12/20 10:04:13;;;;;;;2.60;1.40;;;7.10;99.90;;;;;;5096252;28;20539;-57
2023/12/20 10:06:42;;;;;;;8.27;2.70;;;7.10;99.90;;;;;;5096831;28;20448;-57
2023/12/20 10:09:09;;;;;;;4.20;1.80;;;7.10;99.90;;;;;;5096494;28;20567;-55
2023/12/20 10:11:37;;;;;;;4.30;2.00;;;7.10;99.90;;;;;;5096513;28;20467;-58
2023/12/20 10:14:05;;;;;;;6.23;2.23;;;7.10;99.90;;;;;;5096049;28;20923;-58
2023/12/20 10:16:33;;;;;;;5.57;1.73;;;7.10;99.90;;;;;;5097965;28;20440;-57
2023/12/20 10:19:01;;;;;;;3.53;1.87;;;7.10;99.90;;;;;;5098697;28;20435;-58
2023/12/20 10:21:28;;;;;;;2.03;1.30;;;7.20;99.90;;;;;;5099031;28;20513;-52
2023/12/20 10:23:57;;;;;;;10.83;2.70;;;7.20;99.90;;;;;;5101288;28;20483;-52
2023/12/20 10:26:25;;;;;;;5.87;1.60;;;7.20;99.90;;;;;;5101792;28;20536;-54
2023/12/20 10:28:54;;;;;;;2.50;1.43;;;7.20;99.90;;;;;;5100971;28;20494;-56
2023/12/20 10:31:31;;;;;;;3.73;1.40;;;7.20;99.90;;;;;;5096455;28;20495;-58
2023/12/20 10:33:59;;;;;;;3.87;2.10;;;7.20;99.90;;;;;;5096451;28;20849;-57
2023/12/20 10:36:27;;;;;;;3.27;2.00;;;7.20;99.90;;;;;;5096015;28;20436;-58
2023/12/20 10:38:57;;;;;;;2.80;2.07;;;7.10;99.90;;;;;;5095972;28;20437;-59
2023/12/20 10:41:28;;;;;;;7.80;2.00;;;7.00;99.90;;;;;;5106935;28;20486;-55
2023/12/20 10:43:59;;;;;;;5.07;1.77;;;7.10;99.90;;;;;;5116367;28;20434;-57
2023/12/20 10:46:28;;;;;;;5.43;1.80;;;7.10;99.90;;;;;;5116162;28;20432;-57
2023/12/20 10:48:55;;;;;;;8.60;1.80;;;7.10;99.90;;;;;;5115801;28;20553;-56
2023/12/20 10:51:26;;;;;;;2.67;1.93;;;7.20;99.90;;;;;;5116008;28;20453;-58
2023/12/20 10:53:54;;;;;;;4.73;1.70;;;7.30;99.90;;;;;;5115995;28;20471;-60
2023/12/20 10:56:23;;;;;;;1.70;1.10;;;7.30;99.90;;;;;;5116005;28;20482;-59
2023/12/20 10:58:51;;;;;;;9.27;1.90;;;7.30;99.90;;;;;;5115888;28;20448;-58
2023/12/20 11:01:20;;;;;;;14.97;2.17;;;7.40;99.90;;;;;;5115453;28;20527;-57
2023/12/20 11:03:50;;;;;;;5.47;1.77;;;7.40;99.90;;;;;;5115594;28;20912;-58
2023/12/20 11:06:28;;;;;;;5.23;1.97;;;7.40;99.90;;;;;;5115865;28;20450;-57
2023/12/20 11:09:09;;;;;;;3.77;2.00;;;7.40;99.90;;;;;;5115028;28;20480;-57
2023/12/20 11:11:46;;;;;;;3.40;1.93;;;7.30;99.90;;;;;;5115857;28;20551;-57
2023/12/20 11:14:17;;;;;;;8.97;3.37;;;7.30;99.90;;;;;;5115413;28;20454;-55
2023/12/20 11:16:44;;;;;;;11.27;2.60;;;7.30;99.90;;;;;;5115705;28;20451;-57
2023/12/20 11:19:13;;;;;;;4.73;2.00;;;7.30;99.90;;;;;;5115380;28;20450;-58
2023/12/20 11:21:41;;;;;;;2.73;1.77;;;7.30;99.90;;;;;;5115926;28;20445;-57
2023/12/20 11:24:08;;;;;;;3.77;1.87;;;7.20;99.90;;;;;;5123576;28;20448;-57
2023/12/20 11:26:35;;;;;;;8.33;2.53;;;7.20;99.90;;;;;;5112293;28;20508;-56
2023/12/20 11:29:36;;;;;;;7.43;2.20;;;7.30;99.90;;;;;;5094802;28;20536;-59
2023/12/20 11:32:04;;;;;;;10.20;2.13;;;7.30;99.90;;;;;;5032625;28;20459;-54
2023/12/20 11:34:36;;;;;;;8.03;2.10;;;7.30;99.90;;;;;;5032478;28;20873;-54
2023/12/20 11:37:04;;;;;;;15.63;2.60;;;7.30;99.90;;;;;;5063199;28;20562;-55
2023/12/20 11:39:32;;;;;;;5.50;2.50;;;7.30;99.90;;;;;;5094490;28;20525;-55
2023/12/20 11:42:06;;;;;;;8.63;2.03;;;7.30;99.90;;;;;;5094967;28;20472;-56
2023/12/20 11:44:33;;;;;;;8.20;2.30;;;7.30;99.90;;;;;;5094640;28;20507;-57
2023/12/20 11:47:01;;;;;;;8.43;2.03;;;7.20;99.90;;;;;;5094224;28;20464;-54
2023/12/20 11:49:29;;;;;;;7.97;2.30;;;7.20;99.90;;;;;;5094668;28;20512;-56
2023/12/20 11:51:56;;;;;;;12.67;1.97;;;7.20;99.90;;;;;;5094729;28;20533;-58
2023/12/20 11:54:23;;;;;;;11.07;3.43;;;7.20;99.90;;;;;;5094678;28;20491;-55
2023/12/20 11:56:49;;;;;;;9.90;4.07;;;7.20;99.90;;;;;;5094680;28;20535;-57
2023/12/20 11:59:16;;;;;;;4.40;1.83;;;7.20;99.90;;;;;;5094367;28;20532;-59
2023/12/20 12:01:50;;;;;;;7.30;2.10;;;7.20;99.90;;;;;;5094581;28;20535;-59
2023/12/20 12:04:18;;;;;;;4.10;1.70;;;7.20;99.90;;;;;;5094635;28;20436;-57
2023/12/20 12:06:45;;;;;;;4.50;1.80;;;7.20;99.90;;;;;;5094266;28;20944;-56
2023/12/20 12:09:12;;;;;;;4.60;2.03;;;7.20;99.90;;;;;;5094124;28;20494;-58
2023/12/20 12:11:39;;;;;;;3.07;2.43;;;7.20;99.90;;;;;;5094251;28;20531;-58
2023/12/20 12:14:07;;;;;;;3.53;1.90;;;7.20;99.90;;;;;;5094166;28;20563;-57
2023/12/20 12:16:34;;;;;;;7.80;1.73;;;7.20;99.90;;;;;;5094129;28;20543;-58
2023/12/20 12:19:01;;;;;;;2.60;1.73;;;7.20;99.90;;;;;;5094838;28;20519;-58
2023/12/20 12:21:29;;;;;;;12.20;2.43;;;7.30;99.90;;;;;;5098678;28;20535;-56
2023/12/20 12:24:07;;;;;;;8.70;2.50;;;7.30;99.90;;;;;;5098362;28;20439;-56
2023/12/20 12:26:34;;;;;;;4.93;2.80;;;7.30;99.90;;;;;;5098186;28;20463;-57
2023/12/20 12:29:01;;;;;;;8.67;1.53;;;7.40;99.90;;;;;;5098411;28;20479;-56
2023/12/20 12:31:28;;;;;;;1.90;1.20;;;7.40;99.90;;;;;;5098360;28;20529;-58
2023/12/20 12:33:55;;;;;;;9.57;1.67;;;7.40;99.90;;;;;;5098153;28;21003;-57
2023/12/20 12:36:22;;;;;;;5.03;1.60;;;7.40;99.90;;;;;;5098373;28;20500;-56
2023/12/20 12:38:50;;;;;;;3.67;1.80;;;7.50;99.90;;;;;;5097803;28;20480;-58
2023/12/20 12:41:17;;;;;;;5.80;1.50;;;7.40;99.90;;;;;;5098208;28;20531;-60
2023/12/20 12:43:44;;;;;;;3.73;1.50;;;7.30;99.90;;;;;;5102260;28;20472;-57
2023/12/20 12:46:11;;;;;;;10.90;2.17;;;7.20;99.90;;;;;;5108268;28;20462;-58
2023/12/20 12:48:38;;;;;;;6.57;3.50;;;7.20;99.90;;;;;;5117615;28;20445;-58
2023/12/20 12:51:07;;;;;;;13.80;5.27;;;7.20;99.90;;;;;;5118367;28;20463;-56
2023/12/20 12:53:33;;;;;;;6.20;1.93;;;7.20;99.90;;;;;;5105457;28;20466;-57
2023/12/20 12:56:02;;;;;;;7.03;3.07;;;7.20;99.90;;;;;;5098607;28;20444;-53
2023/12/20 12:58:29;;;;;;;8.70;3.10;;;7.20;99.90;;;;;;5098319;28;20487;-56